Sealand New York — 9HA3394 — position and weather

sailwx.info

Track history (hours):
 
Tides and Currents Weather Stations Pressure Air Temp Water Temp Dewpoint Dewpoint Depression Visibility Wind Speed Wind Dir Waves Ship Positions

Sealand New York

Last reported at 2018-Feb-20 20:57 UTC. Time now 2018-Feb-20 21:36 UTC.
Position N 38°14' W 023°48'.

Length 304 m; draft 13 m.

Type: Cargo ship. MMSI: 229544000.

Date/timePositionNaut miles runAvg speedWind from/ knotsBaromVisibWave heightAir tempDewpointWater temp
2018-Feb-20 20:57N 38°14' W 023°48'818.2
2018-Feb-20 20:30N 38°13' W 023°58'918.4
2018-Feb-20 20:00N 38°13' W 024°10'918.2
2018-Feb-20 19:30N 38°12' W 024°21'918.4
2018-Feb-20 19:00N 38°12' W 024°33'918.3
2018-Feb-20 18:30N 38°11' W 024°45'918.4
2018-Feb-20 18:00N 38°11' W 024°56'918.6
2018-Feb-20 17:30N 38°10' W 025°08'918.3
2018-Feb-20 17:01N 38°09' W 025°20'918.4
2018-Feb-20 16:30N 38°09' W 025°31'918.6
2018-Feb-20 16:00N 38°08' W 025°43'1018.5
2018-Feb-20 15:29N 38°08' W 025°55'918.6
2018-Feb-20 15:00N 38°07' W 026°07'918.9
2018-Feb-20 14:30N 38°06' W 026°19'918.7
2018-Feb-20 14:00N 38°06' W 026°30'918.8
2018-Feb-20 13:30N 38°05' W 026°42'918.7
2018-Feb-20 13:00N 38°05' W 026°54'918.5
2018-Feb-20 12:31N 38°05' W 027°06'918.3
2018-Feb-20 12:00N 38°05' W 027°18'918.4
2018-Feb-20 11:30N 38°04' W 027°29'918.0
2018-Feb-20 11:00N 38°04' W 027°41'918.4
2018-Feb-20 10:30N 38°04' W 027°52'918.5
2018-Feb-20 10:00N 38°04' W 028°04'918.4
2018-Feb-20 09:30N 38°03' W 028°16'918.3
2018-Feb-20 09:00N 38°03' W 028°27'918.2
2018-Feb-20 08:30N 38°03' W 028°39'918.0
2018-Feb-20 08:00N 38°02' W 028°50'918.5
2018-Feb-20 07:30N 38°02' W 029°02'918.1
2018-Feb-20 07:00N 38°01' W 029°14'918.0
2018-Feb-20 06:30N 38°01' W 029°25'918.0
2018-Feb-20 06:00N 38°01' W 029°37'917.9
2018-Feb-20 05:30N 38°01' W 029°48'917.9
2018-Feb-20 05:00N 37°60' W 029°59'918.2
2018-Feb-20 04:30N 37°59' W 030°11'918.5
2018-Feb-20 04:00N 37°59' W 030°22'8818.1
2018-Feb-19 23:09N 37°53' W 032°13'418.3
2018-Feb-19 22:58N 37°52' W 032°18'  
2018-Feb-13 04:57N 26°12' W 079°16'612.4
2018-Feb-13 04:30N 26°09' W 079°22'612.6
2018-Feb-13 04:00N 26°05' W 079°28'612.8
2018-Feb-13 03:30N 26°02' W 079°34'612.7
2018-Feb-13 03:00N 25°58' W 079°40'612.8
2018-Feb-13 02:30N 25°55' W 079°46'612.7
2018-Feb-13 02:00N 25°52' W 079°52'612.5
2018-Feb-13 01:30N 25°49' W 079°58'611.3
2018-Feb-13 01:00N 25°47' W 080°04'4 9.0
2018-Feb-13 00:30N 25°46' W 080°09'1 1.7
2018-Feb-13 00:00N 25°46' W 080°10'0 0.0
2018-Feb-12 23:27N 25°46' W 080°10'0 0.0
2018-Feb-12 23:00N 25°46' W 080°10'0 0.0
2018-Feb-12 22:30N 25°46' W 080°10'0 0.0
2018-Feb-12 21:57N 25°46' W 080°10'0 0.0
2018-Feb-12 21:27N 25°46' W 080°10'0 0.0
2018-Feb-12 20:57N 25°46' W 080°10'0 0.0
2018-Feb-12 20:30N 25°46' W 080°10'0 0.0
2018-Feb-12 20:00N 25°46' W 080°10'0 0.0
2018-Feb-12 19:30N 25°46' W 080°10'0 0.0
2018-Feb-12 19:00N 25°46' W 080°10'0 0.0
2018-Feb-12 18:30N 25°46' W 080°10'0 0.0
2018-Feb-12 18:00N 25°46' W 080°10'0 0.0
2018-Feb-12 17:30N 25°46' W 080°10'0 0.0
2018-Feb-12 17:00N 25°46' W 080°10'0 0.0
2018-Feb-12 16:30N 25°46' W 080°10'0 0.0
2018-Feb-12 16:00N 25°46' W 080°10'0 0.0
2018-Feb-12 15:30N 25°46' W 080°10'0 0.0
2018-Feb-12 15:00N 25°46' W 080°10'0 0.0
2018-Feb-12 14:30N 25°46' W 080°10'0 0.0
2018-Feb-12 14:00N 25°46' W 080°10'0 0.0
2018-Feb-12 13:30N 25°46' W 080°10'0 0.0
2018-Feb-12 13:00N 25°46' W 080°10'0 0.9
2018-Feb-12 12:30N 25°46' W 080°10'2 4.7
2018-Feb-12 12:00N 25°46' W 080°07'510.1
2018-Feb-12 11:30N 25°47' W 080°02'2 4.5
2018-Feb-12 11:00N 25°47' W 079°60'4 8.0
2018-Feb-12 10:30N 25°43' W 079°58'5 9.4
2018-Feb-12 10:00N 25°38' W 079°58'3 6.5
2018-Feb-12 09:30N 25°35' W 079°59'612.1
2018-Feb-12 09:00N 25°29' W 079°59'816.4
2018-Feb-12 08:30N 25°21' W 080°03'816.9
2018-Feb-12 08:00N 25°13' W 080°06'  
Track history (hours):
 
Tides and Currents Weather Stations Pressure Air Temp Water Temp Dewpoint Dewpoint Depression Visibility Wind Speed Wind Dir Waves Ship Positions

Sealand New York

Last reported at 2018-Feb-20 20:57 UTC. Time now 2018-Feb-20 21:36 UTC.
Position N 38°14' W 023°48'.

Length 304 m; draft 13 m.

Type: Cargo ship. MMSI: 229544000.

Date/timePositionNaut miles runAvg speedWind from/ knotsBaromVisibWave heightAir tempDewpointWater temp
2018-Feb-20 20:57N 38°14' W 023°48'818.2
2018-Feb-20 20:30N 38°13' W 023°58'918.4
2018-Feb-20 20:00N 38°13' W 024°10'918.2
2018-Feb-20 19:30N 38°12' W 024°21'918.4
2018-Feb-20 19:00N 38°12' W 024°33'918.3
2018-Feb-20 18:30N 38°11' W 024°45'918.4
2018-Feb-20 18:00N 38°11' W 024°56'918.6
2018-Feb-20 17:30N 38°10' W 025°08'918.3
2018-Feb-20 17:01N 38°09' W 025°20'918.4
2018-Feb-20 16:30N 38°09' W 025°31'918.6
2018-Feb-20 16:00N 38°08' W 025°43'1018.5
2018-Feb-20 15:29N 38°08' W 025°55'918.6
2018-Feb-20 15:00N 38°07' W 026°07'918.9
2018-Feb-20 14:30N 38°06' W 026°19'918.7
2018-Feb-20 14:00N 38°06' W 026°30'918.8
2018-Feb-20 13:30N 38°05' W 026°42'918.7
2018-Feb-20 13:00N 38°05' W 026°54'918.5
2018-Feb-20 12:31N 38°05' W 027°06'918.3
2018-Feb-20 12:00N 38°05' W 027°18'918.4
2018-Feb-20 11:30N 38°04' W 027°29'918.0
2018-Feb-20 11:00N 38°04' W 027°41'918.4
2018-Feb-20 10:30N 38°04' W 027°52'918.5
2018-Feb-20 10:00N 38°04' W 028°04'918.4
2018-Feb-20 09:30N 38°03' W 028°16'918.3
2018-Feb-20 09:00N 38°03' W 028°27'918.2
2018-Feb-20 08:30N 38°03' W 028°39'918.0
2018-Feb-20 08:00N 38°02' W 028°50'918.5
2018-Feb-20 07:30N 38°02' W 029°02'918.1
2018-Feb-20 07:00N 38°01' W 029°14'918.0
2018-Feb-20 06:30N 38°01' W 029°25'918.0
2018-Feb-20 06:00N 38°01' W 029°37'917.9
2018-Feb-20 05:30N 38°01' W 029°48'917.9
2018-Feb-20 05:00N 37°60' W 029°59'918.2
2018-Feb-20 04:30N 37°59' W 030°11'918.5
2018-Feb-20 04:00N 37°59' W 030°22'8818.1
2018-Feb-19 23:09N 37°53' W 032°13'418.3
2018-Feb-19 22:58N 37°52' W 032°18'  
2018-Feb-13 04:57N 26°12' W 079°16'612.4
2018-Feb-13 04:30N 26°09' W 079°22'612.6
2018-Feb-13 04:00N 26°05' W 079°28'612.8
2018-Feb-13 03:30N 26°02' W 079°34'612.7
2018-Feb-13 03:00N 25°58' W 079°40'612.8
2018-Feb-13 02:30N 25°55' W 079°46'612.7
2018-Feb-13 02:00N 25°52' W 079°52'612.5
2018-Feb-13 01:30N 25°49' W 079°58'611.3
2018-Feb-13 01:00N 25°47' W 080°04'4 9.0
2018-Feb-13 00:30N 25°46' W 080°09'1 1.7
2018-Feb-13 00:00N 25°46' W 080°10'0 0.0
2018-Feb-12 23:27N 25°46' W 080°10'0 0.0
2018-Feb-12 23:00N 25°46' W 080°10'0 0.0
2018-Feb-12 22:30N 25°46' W 080°10'0 0.0
2018-Feb-12 21:57N 25°46' W 080°10'0 0.0
2018-Feb-12 21:27N 25°46' W 080°10'0 0.0
2018-Feb-12 20:57N 25°46' W 080°10'0 0.0
2018-Feb-12 20:30N 25°46' W 080°10'0 0.0
2018-Feb-12 20:00N 25°46' W 080°10'0 0.0
2018-Feb-12 19:30N 25°46' W 080°10'0 0.0
2018-Feb-12 19:00N 25°46' W 080°10'0 0.0
2018-Feb-12 18:30N 25°46' W 080°10'0 0.0
2018-Feb-12 18:00N 25°46' W 080°10'0 0.0
2018-Feb-12 17:30N 25°46' W 080°10'0 0.0
2018-Feb-12 17:00N 25°46' W 080°10'0 0.0
2018-Feb-12 16:30N 25°46' W 080°10'0 0.0
2018-Feb-12 16:00N 25°46' W 080°10'0 0.0
2018-Feb-12 15:30N 25°46' W 080°10'0 0.0
2018-Feb-12 15:00N 25°46' W 080°10'0 0.0
2018-Feb-12 14:30N 25°46' W 080°10'0 0.0
2018-Feb-12 14:00N 25°46' W 080°10'0 0.0
2018-Feb-12 13:30N 25°46' W 080°10'0 0.0
2018-Feb-12 13:00N 25°46' W 080°10'0 0.9
2018-Feb-12 12:30N 25°46' W 080°10'2 4.7
2018-Feb-12 12:00N 25°46' W 080°07'510.1
2018-Feb-12 11:30N 25°47' W 080°02'2 4.5
2018-Feb-12 11:00N 25°47' W 079°60'4 8.0
2018-Feb-12 10:30N 25°43' W 079°58'5 9.4
2018-Feb-12 10:00N 25°38' W 079°58'3 6.5
2018-Feb-12 09:30N 25°35' W 079°59'612.1
2018-Feb-12 09:00N 25°29' W 079°59'816.4
2018-Feb-12 08:30N 25°21' W 080°03'816.9
2018-Feb-12 08:00N 25°13' W 080°06'  

Dump ship's entire track history